sensor_id;sensor_type;location;lat;lon;timestamp;P1;durP1;ratioP1;P2;durP2;ratioP2
52898;SDS011;38763;53.096;6.062;2022-11-15T00:00:08;32.88;;;18.08;;
52898;SDS011;38763;53.096;6.062;2022-11-15T00:02:34;34.45;;;18.52;;
52898;SDS011;38763;53.096;6.062;2022-11-15T00:05:00;37.05;;;19.98;;
52898;SDS011;38763;53.096;6.062;2022-11-15T00:07:26;35.25;;;19.85;;
52898;SDS011;38763;53.096;6.062;2022-11-15T00:09:51;38.05;;;20.30;;
52898;SDS011;38763;53.096;6.062;2022-11-15T00:12:17;36.92;;;19.77;;
52898;SDS011;38763;53.096;6.062;2022-11-15T00:14:42;36.65;;;20.38;;
52898;SDS011;38763;53.096;6.062;2022-11-15T00:17:08;39.65;;;19.77;;
52898;SDS011;38763;53.096;6.062;2022-11-15T00:19:34;36.78;;;20.02;;
52898;SDS011;38763;53.096;6.062;2022-11-15T00:21:59;36.88;;;19.45;;
52898;SDS011;38763;53.096;6.062;2022-11-15T00:24:25;39.30;;;19.10;;
52898;SDS011;38763;53.096;6.062;2022-11-15T00:26:51;38.05;;;19.40;;
52898;SDS011;38763;53.096;6.062;2022-11-15T00:29:16;37.08;;;19.60;;
52898;SDS011;38763;53.096;6.062;2022-11-15T00:31:42;36.10;;;18.90;;
52898;SDS011;38763;53.096;6.062;2022-11-15T00:34:08;34.60;;;17.92;;
52898;SDS011;38763;53.096;6.062;2022-11-15T00:36:34;34.53;;;18.90;;
52898;SDS011;38763;53.096;6.062;2022-11-15T00:39:00;35.22;;;18.05;;
52898;SDS011;38763;53.096;6.062;2022-11-15T00:41:25;32.75;;;17.73;;
52898;SDS011;38763;53.096;6.062;2022-11-15T00:43:51;35.28;;;17.73;;
52898;SDS011;38763;53.096;6.062;2022-11-15T00:46:17;33.97;;;17.63;;
52898;SDS011;38763;53.096;6.062;2022-11-15T00:48:42;35.10;;;18.73;;
52898;SDS011;38763;53.096;6.062;2022-11-15T00:51:08;31.20;;;16.63;;
52898;SDS011;38763;53.096;6.062;2022-11-15T00:53:33;33.28;;;18.42;;
52898;SDS011;38763;53.096;6.062;2022-11-15T00:55:59;29.35;;;16.15;;
52898;SDS011;38763;53.096;6.062;2022-11-15T00:58:25;31.75;;;17.55;;
52898;SDS011;38763;53.096;6.062;2022-11-15T01:00:50;31.40;;;16.33;;
52898;SDS011;38763;53.096;6.062;2022-11-15T01:03:16;34.65;;;18.17;;
52898;SDS011;38763;53.096;6.062;2022-11-15T01:05:41;36.88;;;18.45;;
52898;SDS011;38763;53.096;6.062;2022-11-15T01:08:11;33.92;;;17.92;;
52898;SDS011;38763;53.096;6.062;2022-11-15T01:10:38;32.58;;;17.90;;
52898;SDS011;38763;53.096;6.062;2022-11-15T01:13:04;34.38;;;18.25;;
52898;SDS011;38763;53.096;6.062;2022-11-15T01:15:30;34.28;;;17.42;;
52898;SDS011;38763;53.096;6.062;2022-11-15T01:17:55;33.95;;;18.35;;
52898;SDS011;38763;53.096;6.062;2022-11-15T01:20:21;33.97;;;18.67;;
52898;SDS011;38763;53.096;6.062;2022-11-15T01:22:47;30.58;;;17.45;;
52898;SDS011;38763;53.096;6.062;2022-11-15T01:25:12;31.23;;;16.60;;
52898;SDS011;38763;53.096;6.062;2022-11-15T01:27:38;33.95;;;18.45;;
52898;SDS011;38763;53.096;6.062;2022-11-15T01:30:04;37.85;;;19.70;;
52898;SDS011;38763;53.096;6.062;2022-11-15T01:32:30;34.88;;;18.63;;
52898;SDS011;38763;53.096;6.062;2022-11-15T01:34:56;37.25;;;19.15;;
52898;SDS011;38763;53.096;6.062;2022-11-15T01:37:22;35.30;;;18.55;;
52898;SDS011;38763;53.096;6.062;2022-11-15T01:39:47;35.97;;;18.90;;
52898;SDS011;38763;53.096;6.062;2022-11-15T01:42:13;36.20;;;19.20;;
52898;SDS011;38763;53.096;6.062;2022-11-15T01:44:43;32.65;;;16.77;;
52898;SDS011;38763;53.096;6.062;2022-11-15T01:49:42;37.45;;;18.13;;
52898;SDS011;38763;53.096;6.062;2022-11-15T01:52:17;35.20;;;17.25;;
52898;SDS011;38763;53.096;6.062;2022-11-15T01:54:46;37.13;;;18.20;;
52898;SDS011;38763;53.096;6.062;2022-11-15T01:57:13;34.58;;;18.45;;
52898;SDS011;38763;53.096;6.062;2022-11-15T01:59:39;37.13;;;18.10;;
52898;SDS011;38763;53.096;6.062;2022-11-15T02:02:07;32.75;;;16.95;;
52898;SDS011;38763;53.096;6.062;2022-11-15T02:04:37;34.67;;;17.20;;
52898;SDS011;38763;53.096;6.062;2022-11-15T02:07:12;31.40;;;15.02;;
52898;SDS011;38763;53.096;6.062;2022-11-15T02:09:42;31.40;;;16.00;;
52898;SDS011;38763;53.096;6.062;2022-11-15T02:12:09;32.28;;;15.93;;
52898;SDS011;38763;53.096;6.062;2022-11-15T02:14:39;35.55;;;16.15;;
52898;SDS011;38763;53.096;6.062;2022-11-15T02:19:53;34.85;;;17.20;;
52898;SDS011;38763;53.096;6.062;2022-11-15T02:31:26;38.47;;;17.20;;
52898;SDS011;38763;53.096;6.062;2022-11-15T02:34:58;38.80;;;16.80;;
52898;SDS011;38763;53.096;6.062;2022-11-15T02:39:56;38.33;;;17.98;;
52898;SDS011;38763;53.096;6.062;2022-11-15T02:42:45;39.72;;;17.95;;
52898;SDS011;38763;53.096;6.062;2022-11-15T02:45:54;38.28;;;17.20;;
52898;SDS011;38763;53.096;6.062;2022-11-15T02:48:28;41.90;;;18.05;;
52898;SDS011;38763;53.096;6.062;2022-11-15T02:50:56;44.80;;;19.27;;
52898;SDS011;38763;53.096;6.062;2022-11-15T02:53:24;46.65;;;19.83;;
52898;SDS011;38763;53.096;6.062;2022-11-15T02:55:50;41.78;;;18.88;;
52898;SDS011;38763;53.096;6.062;2022-11-15T03:09:40;45.92;;;20.42;;
52898;SDS011;38763;53.096;6.062;2022-11-15T03:12:21;49.22;;;20.15;;
52898;SDS011;38763;53.096;6.062;2022-11-15T03:15:05;45.03;;;19.88;;
52898;SDS011;38763;53.096;6.062;2022-11-15T03:17:40;47.47;;;19.87;;
52898;SDS011;38763;53.096;6.062;2022-11-15T03:20:11;50.67;;;19.98;;
52898;SDS011;38763;53.096;6.062;2022-11-15T03:22:40;42.97;;;19.00;;
52898;SDS011;38763;53.096;6.062;2022-11-15T03:25:09;50.83;;;21.35;;
52898;SDS011;38763;53.096;6.062;2022-11-15T03:27:39;45.92;;;19.02;;
52898;SDS011;38763;53.096;6.062;2022-11-15T03:30:09;54.17;;;20.00;;
52898;SDS011;38763;53.096;6.062;2022-11-15T03:32:37;58.08;;;21.40;;
52898;SDS011;38763;53.096;6.062;2022-11-15T03:35:08;55.63;;;21.45;;
52898;SDS011;38763;53.096;6.062;2022-11-15T03:37:37;57.97;;;21.25;;
52898;SDS011;38763;53.096;6.062;2022-11-15T03:40:04;59.90;;;21.73;;
52898;SDS011;38763;53.096;6.062;2022-11-15T03:42:32;59.88;;;21.95;;
52898;SDS011;38763;53.096;6.062;2022-11-15T03:47:49;52.75;;;20.52;;
52898;SDS011;38763;53.096;6.062;2022-11-15T03:50:29;58.22;;;20.98;;
52898;SDS011;38763;53.096;6.062;2022-11-15T03:52:55;61.00;;;22.45;;
52898;SDS011;38763;53.096;6.062;2022-11-15T03:55:21;63.90;;;22.52;;
52898;SDS011;38763;53.096;6.062;2022-11-15T03:57:48;61.63;;;22.23;;
52898;SDS011;38763;53.096;6.062;2022-11-15T04:00:16;56.55;;;21.98;;
52898;SDS011;38763;53.096;6.062;2022-11-15T04:02:42;65.60;;;23.40;;
52898;SDS011;38763;53.096;6.062;2022-11-15T04:05:08;70.82;;;24.27;;
52898;SDS011;38763;53.096;6.062;2022-11-15T04:07:33;69.20;;;23.17;;
52898;SDS011;38763;53.096;6.062;2022-11-15T04:09:59;67.10;;;23.63;;
52898;SDS011;38763;53.096;6.062;2022-11-15T04:12:34;70.13;;;23.65;;
52898;SDS011;38763;53.096;6.062;2022-11-15T04:15:03;76.07;;;23.67;;
52898;SDS011;38763;53.096;6.062;2022-11-15T04:17:43;66.45;;;23.95;;
52898;SDS011;38763;53.096;6.062;2022-11-15T04:20:20;76.10;;;24.38;;
52898;SDS011;38763;53.096;6.062;2022-11-15T04:23:13;73.68;;;24.83;;
52898;SDS011;38763;53.096;6.062;2022-11-15T04:26:03;70.32;;;23.45;;
52898;SDS011;38763;53.096;6.062;2022-11-15T04:28:30;65.70;;;23.00;;
52898;SDS011;38763;53.096;6.062;2022-11-15T04:30:56;80.55;;;24.88;;
52898;SDS011;38763;53.096;6.062;2022-11-15T04:33:22;71.55;;;24.77;;
52898;SDS011;38763;53.096;6.062;2022-11-15T04:35:48;80.93;;;25.52;;
52898;SDS011;38763;53.096;6.062;2022-11-15T04:38:33;72.47;;;24.30;;
52898;SDS011;38763;53.096;6.062;2022-11-15T04:41:00;71.28;;;24.63;;
52898;SDS011;38763;53.096;6.062;2022-11-15T04:43:26;79.65;;;26.15;;
52898;SDS011;38763;53.096;6.062;2022-11-15T04:45:51;78.55;;;25.58;;
52898;SDS011;38763;53.096;6.062;2022-11-15T04:48:17;69.93;;;24.13;;
52898;SDS011;38763;53.096;6.062;2022-11-15T04:50:43;69.97;;;23.92;;
52898;SDS011;38763;53.096;6.062;2022-11-15T04:53:08;68.82;;;25.13;;
52898;SDS011;38763;53.096;6.062;2022-11-15T04:55:34;75.35;;;25.98;;
52898;SDS011;38763;53.096;6.062;2022-11-15T04:58:00;82.32;;;27.58;;
52898;SDS011;38763;53.096;6.062;2022-11-15T05:00:27;90.22;;;28.25;;
52898;SDS011;38763;53.096;6.062;2022-11-15T05:02:54;86.47;;;26.42;;
52898;SDS011;38763;53.096;6.062;2022-11-15T05:05:38;96.60;;;29.10;;
52898;SDS011;38763;53.096;6.062;2022-11-15T05:08:04;91.95;;;28.45;;
52898;SDS011;38763;53.096;6.062;2022-11-15T05:10:30;90.75;;;30.13;;
52898;SDS011;38763;53.096;6.062;2022-11-15T05:12:55;107.88;;;32.30;;
52898;SDS011;38763;53.096;6.062;2022-11-15T05:15:21;97.70;;;30.13;;
52898;SDS011;38763;53.096;6.062;2022-11-15T05:17:47;95.47;;;30.85;;
52898;SDS011;38763;53.096;6.062;2022-11-15T05:20:12;98.57;;;31.55;;
52898;SDS011;38763;53.096;6.062;2022-11-15T05:22:38;106.38;;;32.58;;
52898;SDS011;38763;53.096;6.062;2022-11-15T05:25:04;103.97;;;31.77;;
52898;SDS011;38763;53.096;6.062;2022-11-15T05:27:31;111.97;;;32.47;;
52898;SDS011;38763;53.096;6.062;2022-11-15T05:29:58;98.75;;;32.03;;
52898;SDS011;38763;53.096;6.062;2022-11-15T05:32:23;95.55;;;29.20;;
52898;SDS011;38763;53.096;6.062;2022-11-15T05:34:49;101.53;;;33.05;;
52898;SDS011;38763;53.096;6.062;2022-11-15T05:37:15;115.35;;;34.88;;
52898;SDS011;38763;53.096;6.062;2022-11-15T05:39:41;110.20;;;33.10;;
52898;SDS011;38763;53.096;6.062;2022-11-15T05:42:11;116.78;;;34.83;;
52898;SDS011;38763;53.096;6.062;2022-11-15T05:44:39;124.63;;;36.65;;
52898;SDS011;38763;53.096;6.062;2022-11-15T05:47:08;110.07;;;33.38;;
52898;SDS011;38763;53.096;6.062;2022-11-15T05:49:41;114.60;;;33.70;;
52898;SDS011;38763;53.096;6.062;2022-11-15T05:52:09;135.27;;;37.85;;
52898;SDS011;38763;53.096;6.062;2022-11-15T05:54:38;136.70;;;38.83;;
52898;SDS011;38763;53.096;6.062;2022-11-15T05:57:04;147.10;;;39.13;;
52898;SDS011;38763;53.096;6.062;2022-11-15T05:59:30;154.07;;;41.20;;
52898;SDS011;38763;53.096;6.062;2022-11-15T06:01:57;140.55;;;39.55;;
52898;SDS011;38763;53.096;6.062;2022-11-15T06:04:23;144.35;;;38.67;;
52898;SDS011;38763;53.096;6.062;2022-11-15T06:06:49;154.65;;;39.92;;
52898;SDS011;38763;53.096;6.062;2022-11-15T06:09:14;139.15;;;39.83;;
52898;SDS011;38763;53.096;6.062;2022-11-15T06:11:40;182.60;;;42.13;;
52898;SDS011;38763;53.096;6.062;2022-11-15T06:14:05;166.52;;;41.83;;
52898;SDS011;38763;53.096;6.062;2022-11-15T06:16:31;143.02;;;39.05;;
52898;SDS011;38763;53.096;6.062;2022-11-15T06:18:56;149.57;;;39.53;;
52898;SDS011;38763;53.096;6.062;2022-11-15T06:21:22;148.15;;;40.75;;
52898;SDS011;38763;53.096;6.062;2022-11-15T06:23:48;147.20;;;39.45;;
52898;SDS011;38763;53.096;6.062;2022-11-15T06:26:13;138.18;;;36.95;;
52898;SDS011;38763;53.096;6.062;2022-11-15T06:28:39;156.73;;;40.20;;
52898;SDS011;38763;53.096;6.062;2022-11-15T06:31:05;152.30;;;40.45;;
52898;SDS011;38763;53.096;6.062;2022-11-15T06:33:32;150.27;;;39.88;;
52898;SDS011;38763;53.096;6.062;2022-11-15T06:36:01;153.25;;;39.65;;
52898;SDS011;38763;53.096;6.062;2022-11-15T06:38:28;134.55;;;38.63;;
52898;SDS011;38763;53.096;6.062;2022-11-15T06:40:53;131.10;;;37.92;;
52898;SDS011;38763;53.096;6.062;2022-11-15T06:43:19;130.30;;;37.33;;
52898;SDS011;38763;53.096;6.062;2022-11-15T06:45:44;134.77;;;42.25;;
52898;SDS011;38763;53.096;6.062;2022-11-15T06:48:10;133.68;;;39.63;;
52898;SDS011;38763;53.096;6.062;2022-11-15T06:50:36;112.97;;;35.70;;
52898;SDS011;38763;53.096;6.062;2022-11-15T06:53:02;126.10;;;39.88;;
52898;SDS011;38763;53.096;6.062;2022-11-15T06:55:29;141.25;;;39.92;;
52898;SDS011;38763;53.096;6.062;2022-11-15T06:57:54;150.90;;;42.20;;
52898;SDS011;38763;53.096;6.062;2022-11-15T07:00:20;140.60;;;39.83;;
52898;SDS011;38763;53.096;6.062;2022-11-15T07:02:47;135.00;;;39.08;;
52898;SDS011;38763;53.096;6.062;2022-11-15T07:05:13;134.60;;;39.65;;
52898;SDS011;38763;53.096;6.062;2022-11-15T07:07:40;121.03;;;36.45;;
52898;SDS011;38763;53.096;6.062;2022-11-15T07:10:05;127.00;;;38.20;;
52898;SDS011;38763;53.096;6.062;2022-11-15T07:12:32;136.27;;;41.42;;
52898;SDS011;38763;53.096;6.062;2022-11-15T07:14:57;121.03;;;36.35;;
52898;SDS011;38763;53.096;6.062;2022-11-15T07:17:23;119.18;;;37.72;;
52898;SDS011;38763;53.096;6.062;2022-11-15T07:19:49;107.03;;;36.90;;
52898;SDS011;38763;53.096;6.062;2022-11-15T07:22:14;104.95;;;35.35;;
52898;SDS011;38763;53.096;6.062;2022-11-15T07:24:40;116.13;;;36.58;;
52898;SDS011;38763;53.096;6.062;2022-11-15T07:27:05;128.10;;;40.13;;
52898;SDS011;38763;53.096;6.062;2022-11-15T07:29:31;117.35;;;37.53;;
52898;SDS011;38763;53.096;6.062;2022-11-15T07:31:56;108.43;;;36.40;;
52898;SDS011;38763;53.096;6.062;2022-11-15T07:34:22;107.70;;;37.60;;
52898;SDS011;38763;53.096;6.062;2022-11-15T07:36:48;111.00;;;37.53;;
52898;SDS011;38763;53.096;6.062;2022-11-15T07:39:14;114.03;;;36.90;;
52898;SDS011;38763;53.096;6.062;2022-11-15T07:41:40;110.57;;;36.78;;
52898;SDS011;38763;53.096;6.062;2022-11-15T07:44:05;109.32;;;36.85;;
52898;SDS011;38763;53.096;6.062;2022-11-15T07:46:31;116.97;;;36.88;;
52898;SDS011;38763;53.096;6.062;2022-11-15T07:48:57;108.25;;;36.70;;
52898;SDS011;38763;53.096;6.062;2022-11-15T07:51:22;105.80;;;35.92;;
52898;SDS011;38763;53.096;6.062;2022-11-15T07:53:48;104.82;;;35.08;;
52898;SDS011;38763;53.096;6.062;2022-11-15T07:56:14;99.90;;;35.50;;
52898;SDS011;38763;53.096;6.062;2022-11-15T07:58:40;87.30;;;34.55;;
52898;SDS011;38763;53.096;6.062;2022-11-15T08:01:06;85.80;;;32.60;;
52898;SDS011;38763;53.096;6.062;2022-11-15T08:03:33;92.72;;;34.80;;
52898;SDS011;38763;53.096;6.062;2022-11-15T08:05:59;91.05;;;33.05;;
52898;SDS011;38763;53.096;6.062;2022-11-15T08:08:25;89.80;;;34.13;;
52898;SDS011;38763;53.096;6.062;2022-11-15T08:10:51;88.70;;;32.42;;
52898;SDS011;38763;53.096;6.062;2022-11-15T08:13:17;97.40;;;35.28;;
52898;SDS011;38763;53.096;6.062;2022-11-15T08:15:42;88.18;;;34.50;;
52898;SDS011;38763;53.096;6.062;2022-11-15T08:18:09;87.05;;;33.05;;
52898;SDS011;38763;53.096;6.062;2022-11-15T08:20:40;89.40;;;33.13;;
52898;SDS011;38763;53.096;6.062;2022-11-15T08:23:06;82.03;;;32.88;;
52898;SDS011;38763;53.096;6.062;2022-11-15T08:25:32;83.00;;;32.22;;
52898;SDS011;38763;53.096;6.062;2022-11-15T08:28:00;77.13;;;30.52;;
52898;SDS011;38763;53.096;6.062;2022-11-15T08:30:28;81.47;;;32.20;;
52898;SDS011;38763;53.096;6.062;2022-11-15T08:32:55;80.43;;;32.67;;
52898;SDS011;38763;53.096;6.062;2022-11-15T08:35:23;79.10;;;31.45;;
52898;SDS011;38763;53.096;6.062;2022-11-15T08:37:49;82.57;;;31.77;;
52898;SDS011;38763;53.096;6.062;2022-11-15T08:40:15;64.38;;;27.85;;
52898;SDS011;38763;53.096;6.062;2022-11-15T08:42:41;68.80;;;28.75;;
52898;SDS011;38763;53.096;6.062;2022-11-15T08:45:07;69.38;;;28.63;;
52898;SDS011;38763;53.096;6.062;2022-11-15T08:47:33;71.55;;;29.80;;
52898;SDS011;38763;53.096;6.062;2022-11-15T08:49:59;64.47;;;27.05;;
52898;SDS011;38763;53.096;6.062;2022-11-15T08:52:24;63.60;;;28.67;;
52898;SDS011;38763;53.096;6.062;2022-11-15T08:54:50;62.25;;;28.52;;
52898;SDS011;38763;53.096;6.062;2022-11-15T08:57:16;59.88;;;27.00;;
52898;SDS011;38763;53.096;6.062;2022-11-15T08:59:41;52.92;;;24.67;;
52898;SDS011;38763;53.096;6.062;2022-11-15T09:02:10;64.63;;;26.88;;
52898;SDS011;38763;53.096;6.062;2022-11-15T09:04:39;59.97;;;26.58;;
52898;SDS011;38763;53.096;6.062;2022-11-15T09:07:06;56.47;;;25.77;;
52898;SDS011;38763;53.096;6.062;2022-11-15T09:09:31;60.42;;;26.35;;
52898;SDS011;38763;53.096;6.062;2022-11-15T09:11:57;54.10;;;25.80;;
52898;SDS011;38763;53.096;6.062;2022-11-15T09:14:22;66.78;;;25.02;;
52898;SDS011;38763;53.096;6.062;2022-11-15T09:16:48;50.05;;;25.60;;
52898;SDS011;38763;53.096;6.062;2022-11-15T09:19:13;51.60;;;24.60;;
52898;SDS011;38763;53.096;6.062;2022-11-15T09:21:39;53.47;;;25.30;;
52898;SDS011;38763;53.096;6.062;2022-11-15T09:24:05;54.13;;;25.38;;
52898;SDS011;38763;53.096;6.062;2022-11-15T09:26:31;52.00;;;22.85;;
52898;SDS011;38763;53.096;6.062;2022-11-15T09:28:56;51.95;;;25.05;;
52898;SDS011;38763;53.096;6.062;2022-11-15T09:31:22;49.60;;;23.70;;
52898;SDS011;38763;53.096;6.062;2022-11-15T09:33:47;49.05;;;23.60;;
52898;SDS011;38763;53.096;6.062;2022-11-15T09:36:13;48.92;;;23.33;;
52898;SDS011;38763;53.096;6.062;2022-11-15T09:38:39;52.15;;;24.00;;
52898;SDS011;38763;53.096;6.062;2022-11-15T09:49:15;45.85;;;22.70;;
52898;SDS011;38763;53.096;6.062;2022-11-15T09:51:45;44.92;;;21.48;;
52898;SDS011;38763;53.096;6.062;2022-11-15T09:56:55;47.72;;;21.67;;
52898;SDS011;38763;53.096;6.062;2022-11-15T10:01:56;48.35;;;21.85;;
52898;SDS011;38763;53.096;6.062;2022-11-15T10:04:25;42.15;;;21.40;;
52898;SDS011;38763;53.096;6.062;2022-11-15T10:07:44;38.85;;;18.90;;
52898;SDS011;38763;53.096;6.062;2022-11-15T10:12:22;39.05;;;20.67;;
52898;SDS011;38763;53.096;6.062;2022-11-15T10:14:50;36.70;;;19.38;;
52898;SDS011;38763;53.096;6.062;2022-11-15T10:20:24;38.78;;;19.10;;
52898;SDS011;38763;53.096;6.062;2022-11-15T10:22:56;35.92;;;17.70;;
52898;SDS011;38763;53.096;6.062;2022-11-15T10:25:25;34.25;;;17.55;;
52898;SDS011;38763;53.096;6.062;2022-11-15T10:28:00;37.28;;;18.38;;
52898;SDS011;38763;53.096;6.062;2022-11-15T10:30:45;35.22;;;17.80;;
52898;SDS011;38763;53.096;6.062;2022-11-15T10:44:02;31.88;;;17.27;;
52898;SDS011;38763;53.096;6.062;2022-11-15T10:49:34;31.63;;;16.73;;
52898;SDS011;38763;53.096;6.062;2022-11-15T10:52:17;30.80;;;17.20;;
52898;SDS011;38763;53.096;6.062;2022-11-15T10:57:29;27.42;;;15.60;;
52898;SDS011;38763;53.096;6.062;2022-11-15T10:59:59;26.67;;;14.70;;
52898;SDS011;38763;53.096;6.062;2022-11-15T11:04:55;28.52;;;14.60;;
52898;SDS011;38763;53.096;6.062;2022-11-15T11:07:22;28.17;;;14.77;;
52898;SDS011;38763;53.096;6.062;2022-11-15T11:09:56;30.40;;;14.32;;
52898;SDS011;38763;53.096;6.062;2022-11-15T11:12:41;24.40;;;13.63;;
52898;SDS011;38763;53.096;6.062;2022-11-15T11:15:10;23.60;;;13.30;;
52898;SDS011;38763;53.096;6.062;2022-11-15T11:22:57;21.10;;;11.75;;
52898;SDS011;38763;53.096;6.062;2022-11-15T11:25:48;19.50;;;11.07;;
52898;SDS011;38763;53.096;6.062;2022-11-15T11:28:30;21.80;;;11.35;;
52898;SDS011;38763;53.096;6.062;2022-11-15T11:34:13;17.38;;;9.65;;
52898;SDS011;38763;53.096;6.062;2022-11-15T11:36:52;17.35;;;9.57;;
52898;SDS011;38763;53.096;6.062;2022-11-15T11:39:43;18.90;;;9.40;;
52898;SDS011;38763;53.096;6.062;2022-11-15T11:48:01;15.60;;;7.95;;
52898;SDS011;38763;53.096;6.062;2022-11-15T11:50:38;15.20;;;7.88;;
52898;SDS011;38763;53.096;6.062;2022-11-15T11:53:16;13.85;;;7.10;;
52898;SDS011;38763;53.096;6.062;2022-11-15T11:56:04;11.65;;;6.47;;
52898;SDS011;38763;53.096;6.062;2022-11-15T11:58:55;12.20;;;7.15;;
52898;SDS011;38763;53.096;6.062;2022-11-15T12:01:33;10.82;;;6.22;;
52898;SDS011;38763;53.096;6.062;2022-11-15T12:04:08;13.98;;;6.65;;
52898;SDS011;38763;53.096;6.062;2022-11-15T12:07:01;12.55;;;6.50;;
52898;SDS011;38763;53.096;6.062;2022-11-15T12:12:35;13.43;;;6.40;;
52898;SDS011;38763;53.096;6.062;2022-11-15T12:15:11;10.65;;;5.95;;
52898;SDS011;38763;53.096;6.062;2022-11-15T12:17:40;12.07;;;6.60;;
52898;SDS011;38763;53.096;6.062;2022-11-15T12:20:23;14.68;;;6.68;;
52898;SDS011;38763;53.096;6.062;2022-11-15T12:28:42;13.68;;;6.88;;
52898;SDS011;38763;53.096;6.062;2022-11-15T12:31:47;11.98;;;6.57;;
52898;SDS011;38763;53.096;6.062;2022-11-15T12:36:45;10.90;;;6.15;;
52898;SDS011;38763;53.096;6.062;2022-11-15T12:39:12;9.65;;;5.75;;
52898;SDS011;38763;53.096;6.062;2022-11-15T12:41:39;11.18;;;5.45;;
52898;SDS011;38763;53.096;6.062;2022-11-15T12:44:13;7.35;;;4.30;;
52898;SDS011;38763;53.096;6.062;2022-11-15T12:47:13;9.35;;;4.15;;
52898;SDS011;38763;53.096;6.062;2022-11-15T12:49:51;9.63;;;4.38;;
52898;SDS011;38763;53.096;6.062;2022-11-15T12:52:17;7.40;;;4.00;;
52898;SDS011;38763;53.096;6.062;2022-11-15T13:02:33;9.35;;;2.95;;
52898;SDS011;38763;53.096;6.062;2022-11-15T13:06:02;7.72;;;2.95;;
52898;SDS011;38763;53.096;6.062;2022-11-15T13:07:56;6.55;;;2.80;;
52898;SDS011;38763;53.096;6.062;2022-11-15T13:15:38;4.03;;;2.53;;
52898;SDS011;38763;53.096;6.062;2022-11-15T13:18:30;5.63;;;2.67;;
52898;SDS011;38763;53.096;6.062;2022-11-15T13:20:56;8.57;;;3.40;;
52898;SDS011;38763;53.096;6.062;2022-11-15T13:23:22;12.45;;;3.25;;
52898;SDS011;38763;53.096;6.062;2022-11-15T13:26:06;5.63;;;3.13;;
52898;SDS011;38763;53.096;6.062;2022-11-15T13:28:46;9.90;;;3.40;;
52898;SDS011;38763;53.096;6.062;2022-11-15T13:34:01;7.45;;;2.90;;
52898;SDS011;38763;53.096;6.062;2022-11-15T13:36:49;6.35;;;2.97;;
52898;SDS011;38763;53.096;6.062;2022-11-15T13:39:33;6.65;;;3.03;;
52898;SDS011;38763;53.096;6.062;2022-11-15T13:42:02;5.78;;;2.85;;
52898;SDS011;38763;53.096;6.062;2022-11-15T13:44:30;6.60;;;3.10;;
52898;SDS011;38763;53.096;6.062;2022-11-15T13:47:04;7.15;;;2.95;;
52898;SDS011;38763;53.096;6.062;2022-11-15T13:49:40;5.90;;;2.97;;
52898;SDS011;38763;53.096;6.062;2022-11-15T13:52:10;7.10;;;2.80;;
52898;SDS011;38763;53.096;6.062;2022-11-15T13:54:55;7.28;;;3.15;;
52898;SDS011;38763;53.096;6.062;2022-11-15T13:57:26;6.55;;;2.95;;
52898;SDS011;38763;53.096;6.062;2022-11-15T13:59:59;5.78;;;2.65;;
52898;SDS011;38763;53.096;6.062;2022-11-15T14:02:29;6.15;;;2.28;;
52898;SDS011;38763;53.096;6.062;2022-11-15T14:05:02;4.55;;;2.50;;
52898;SDS011;38763;53.096;6.062;2022-11-15T14:07:39;7.45;;;2.47;;
52898;SDS011;38763;53.096;6.062;2022-11-15T14:10:17;8.63;;;2.67;;
52898;SDS011;38763;53.096;6.062;2022-11-15T14:12:56;5.55;;;2.38;;
52898;SDS011;38763;53.096;6.062;2022-11-15T14:15:33;6.18;;;2.35;;
52898;SDS011;38763;53.096;6.062;2022-11-15T14:18:00;5.90;;;2.30;;
52898;SDS011;38763;53.096;6.062;2022-11-15T14:23:01;4.93;;;2.50;;
52898;SDS011;38763;53.096;6.062;2022-11-15T14:25:32;7.53;;;2.30;;
52898;SDS011;38763;53.096;6.062;2022-11-15T14:33:32;4.93;;;2.30;;
52898;SDS011;38763;53.096;6.062;2022-11-15T14:38:40;4.10;;;2.00;;
52898;SDS011;38763;53.096;6.062;2022-11-15T14:41:21;7.75;;;2.60;;
52898;SDS011;38763;53.096;6.062;2022-11-15T14:43:49;3.88;;;2.20;;
52898;SDS011;38763;53.096;6.062;2022-11-15T14:46:15;4.47;;;2.42;;
52898;SDS011;38763;53.096;6.062;2022-11-15T14:48:41;4.82;;;2.22;;
52898;SDS011;38763;53.096;6.062;2022-11-15T14:51:14;6.43;;;2.20;;
52898;SDS011;38763;53.096;6.062;2022-11-15T14:53:42;3.45;;;1.83;;
52898;SDS011;38763;53.096;6.062;2022-11-15T14:56:09;5.47;;;2.03;;
52898;SDS011;38763;53.096;6.062;2022-11-15T14:58:35;3.60;;;1.73;;
52898;SDS011;38763;53.096;6.062;2022-11-15T15:03:42;4.00;;;1.60;;
52898;SDS011;38763;53.096;6.062;2022-11-15T15:06:09;3.58;;;1.60;;
52898;SDS011;38763;53.096;6.062;2022-11-15T15:08:37;5.03;;;2.10;;
52898;SDS011;38763;53.096;6.062;2022-11-15T15:11:06;4.28;;;1.88;;
52898;SDS011;38763;53.096;6.062;2022-11-15T15:13:38;7.60;;;2.00;;
52898;SDS011;38763;53.096;6.062;2022-11-15T15:16:04;4.97;;;2.05;;
52898;SDS011;38763;53.096;6.062;2022-11-15T15:18:30;4.95;;;1.60;;
52898;SDS011;38763;53.096;6.062;2022-11-15T15:20:56;8.48;;;1.90;;
52898;SDS011;38763;53.096;6.062;2022-11-15T15:23:24;4.78;;;1.85;;
52898;SDS011;38763;53.096;6.062;2022-11-15T15:25:54;5.30;;;1.90;;
52898;SDS011;38763;53.096;6.062;2022-11-15T15:28:19;4.78;;;1.65;;
52898;SDS011;38763;53.096;6.062;2022-11-15T15:30:45;5.68;;;1.92;;
52898;SDS011;38763;53.096;6.062;2022-11-15T15:33:10;4.35;;;1.70;;
52898;SDS011;38763;53.096;6.062;2022-11-15T15:35:36;4.05;;;1.88;;
52898;SDS011;38763;53.096;6.062;2022-11-15T15:38:02;4.38;;;1.85;;
52898;SDS011;38763;53.096;6.062;2022-11-15T15:40:29;4.45;;;1.60;;
52898;SDS011;38763;53.096;6.062;2022-11-15T15:42:56;4.10;;;1.58;;
52898;SDS011;38763;53.096;6.062;2022-11-15T15:45:21;5.28;;;1.70;;
52898;SDS011;38763;53.096;6.062;2022-11-15T15:47:47;4.65;;;1.70;;
52898;SDS011;38763;53.096;6.062;2022-11-15T15:50:21;4.95;;;1.45;;
52898;SDS011;38763;53.096;6.062;2022-11-15T15:52:55;4.50;;;1.50;;
52898;SDS011;38763;53.096;6.062;2022-11-15T15:55:23;3.28;;;1.58;;
52898;SDS011;38763;53.096;6.062;2022-11-15T15:57:49;7.85;;;2.80;;
52898;SDS011;38763;53.096;6.062;2022-11-15T16:00:15;5.75;;;2.65;;
52898;SDS011;38763;53.096;6.062;2022-11-15T16:02:42;7.10;;;2.63;;
52898;SDS011;38763;53.096;6.062;2022-11-15T16:05:08;6.75;;;2.88;;
52898;SDS011;38763;53.096;6.062;2022-11-15T16:07:34;7.38;;;2.95;;
52898;SDS011;38763;53.096;6.062;2022-11-15T16:10:01;8.02;;;3.72;;
52898;SDS011;38763;53.096;6.062;2022-11-15T16:12:32;8.20;;;3.47;;
52898;SDS011;38763;53.096;6.062;2022-11-15T16:14:59;6.15;;;3.58;;
52898;SDS011;38763;53.096;6.062;2022-11-15T16:17:26;6.90;;;3.63;;
52898;SDS011;38763;53.096;6.062;2022-11-15T16:19:57;7.85;;;3.88;;
52898;SDS011;38763;53.096;6.062;2022-11-15T16:22:22;9.00;;;4.10;;
52898;SDS011;38763;53.096;6.062;2022-11-15T16:24:48;8.80;;;3.70;;
52898;SDS011;38763;53.096;6.062;2022-11-15T16:27:14;7.95;;;3.97;;
52898;SDS011;38763;53.096;6.062;2022-11-15T16:29:41;7.55;;;4.00;;
52898;SDS011;38763;53.096;6.062;2022-11-15T16:32:07;7.50;;;4.57;;
52898;SDS011;38763;53.096;6.062;2022-11-15T16:34:33;9.43;;;4.45;;
52898;SDS011;38763;53.096;6.062;2022-11-15T16:36:59;8.50;;;4.45;;
52898;SDS011;38763;53.096;6.062;2022-11-15T16:39:24;9.77;;;4.88;;
52898;SDS011;38763;53.096;6.062;2022-11-15T16:41:50;10.20;;;4.78;;